Main page


Airports :

Tehran, Iran

Mehrabad International Airport

latitude: 35-41N, longitude: 051-21E, elevation: 1204 m

Current weather observation

The report was made 16 minutes ago, at 21:30 UTC
Wind 4 kt from the Northwest
Temperature 17°C
Humidity 11%
Pressure 1016 hPa
Visibility 10 km or more
Scattered clouds at a height of 10000 ft
Broken clouds at a height of 20000 ft

METAR: OIII 222130Z 32004KT 9999 SCT100 BKN200 17/M14 Q1015 A3000

Time: 02:16 (21:46 UTC)


The report was made 4 hours and 31 minutes ago, at 17:15 UTC
Forecast valid from 22 at 18 UTC to 23 at 24 UTC
Wind 8 kt from the Northwest
Visibility 10 km or more
no clouds below 1500 m and no cumulonimbus
from 23 at 10 UTC to 23 at 16 UTC
Wind 17 kt from the North/Northwest

TAF: OIII 221715Z 2218/2324 32004MPS CAVOK TEMPO 2310/2316 33009MPS

Weather observations and forecasts of more than 4000 airports (METAR and TAF reports).

The available stations are represented by yellow and red dots on the map.

Hover mouse over dot to see the name of the station.

Then click to see weather observations and forecasts.

To change the map : click on the green buttons with a black cross to zoom in, on the green button with a dash to zoom out, or on the green arrows for adjacent maps.